createdAt,value
2023-03-04T00:00:12.114Z,8.52
2023-03-04T00:02:39.774Z,8.68
2023-03-04T00:07:34.375Z,7.40
2023-03-04T00:10:01.541Z,6.15
2023-03-04T00:12:28.692Z,10.38
2023-03-04T00:15:02.090Z,8.70
2023-03-04T00:17:31.531Z,10.02
2023-03-04T00:19:58.725Z,8.82
2023-03-04T00:22:31.446Z,8.20
2023-03-04T00:24:58.576Z,9.45
2023-03-04T00:27:27.634Z,7.90
2023-03-04T00:29:56.403Z,8.40
2023-03-04T00:32:23.809Z,10.00
2023-03-04T00:34:51.290Z,9.68
2023-03-04T00:37:18.937Z,9.65
2023-03-04T00:39:46.196Z,6.97
2023-03-04T00:42:13.346Z,10.10
2023-03-04T00:44:40.607Z,10.43
2023-03-04T00:47:08.225Z,9.15
2023-03-04T00:49:35.316Z,10.90
2023-03-04T00:52:11.517Z,9.77
2023-03-04T00:54:38.586Z,8.75
2023-03-04T00:57:08.657Z,6.57
2023-03-04T00:59:35.816Z,7.85
2023-03-04T01:02:03.256Z,9.52
2023-03-04T01:04:31.129Z,8.38
2023-03-04T01:07:00.273Z,7.68
2023-03-04T01:09:29.764Z,8.23
2023-03-04T01:16:52.307Z,5.88
2023-03-04T01:21:47.181Z,7.03
2023-03-04T01:24:16.146Z,6.75
2023-03-04T01:26:43.635Z,9.18
2023-03-04T01:29:10.996Z,7.75
2023-03-04T01:31:38.381Z,6.22
2023-03-04T01:34:06.075Z,6.07
2023-03-04T01:36:33.378Z,7.05
2023-03-04T01:39:00.966Z,6.05
2023-03-04T01:41:28.724Z,9.00
2023-03-04T01:46:24.976Z,6.80
2023-03-04T01:48:52.934Z,8.35
2023-03-04T01:51:21.331Z,6.45
2023-03-04T01:53:52.097Z,6.85
2023-03-04T01:56:24.240Z,6.85
2023-03-04T01:59:12.622Z,7.55
2023-03-04T02:01:43.238Z,8.20
2023-03-04T02:04:13.405Z,6.95
2023-03-04T02:06:41.805Z,5.95
2023-03-04T02:09:10.871Z,7.03
2023-03-04T02:11:39.089Z,7.22
2023-03-04T02:14:07.520Z,6.40
2023-03-04T02:16:35.049Z,7.63
2023-03-04T02:19:02.854Z,6.07
2023-03-04T02:24:15.926Z,7.28
2023-03-04T02:26:46.938Z,8.55
2023-03-04T02:29:16.714Z,6.45
2023-03-04T02:31:50.106Z,8.82
2023-03-04T02:34:27.881Z,8.18
2023-03-04T02:36:57.125Z,5.68
2023-03-04T02:39:39.696Z,6.38
2023-03-04T02:42:08.061Z,8.57
2023-03-04T02:44:39.069Z,6.13
2023-03-04T02:47:11.030Z,8.30
2023-03-04T02:49:40.336Z,7.50
2023-03-04T02:52:20.792Z,7.32
2023-03-04T02:54:48.471Z,7.38
2023-03-04T02:57:17.004Z,7.05
2023-03-04T02:59:48.604Z,5.95
2023-03-04T03:02:20.340Z,6.65
2023-03-04T03:04:47.988Z,7.20
2023-03-04T03:07:18.693Z,6.97
2023-03-04T03:12:13.719Z,7.63
2023-03-04T03:14:41.057Z,6.82
2023-03-04T03:17:11.142Z,6.55
2023-03-04T03:19:38.486Z,7.50
2023-03-04T03:22:07.916Z,7.15
2023-03-04T03:24:35.768Z,7.50
2023-03-04T03:27:03.326Z,6.22
2023-03-04T03:29:31.867Z,8.40
2023-03-04T03:36:55.028Z,8.35
2023-03-04T03:39:22.556Z,7.65
2023-03-04T03:41:50.208Z,8.82
2023-03-04T03:44:17.748Z,6.10
2023-03-04T03:46:46.944Z,7.43
2023-03-04T03:49:14.508Z,8.50
2023-03-04T03:51:41.783Z,7.95
2023-03-04T03:54:09.625Z,7.45
2023-03-04T03:59:04.563Z,7.05
2023-03-04T04:01:33.630Z,4.72
2023-03-04T04:04:01.358Z,6.75
2023-03-04T04:06:28.780Z,6.30
2023-03-04T04:08:56.330Z,6.28
2023-03-04T04:11:23.954Z,5.68
2023-03-04T04:13:51.297Z,6.88
2023-03-04T04:16:18.672Z,6.07
2023-03-04T04:18:46.199Z,6.65
2023-03-04T04:21:14.423Z,6.78
2023-03-04T04:23:41.878Z,7.65
2023-03-04T04:26:09.339Z,9.35
2023-03-04T04:28:36.684Z,8.52
2023-03-04T04:31:08.676Z,6.97
2023-03-04T04:33:36.930Z,7.25
2023-03-04T04:36:05.238Z,6.22
2023-03-04T04:38:32.712Z,5.55
2023-03-04T04:41:00.404Z,7.65
2023-03-04T04:43:27.951Z,6.15
2023-03-04T04:45:55.644Z,6.53
2023-03-04T04:48:23.057Z,9.40
2023-03-04T04:50:55.527Z,9.15
2023-03-04T04:53:23.032Z,7.32
2023-03-04T04:55:50.435Z,7.68
2023-03-04T04:58:17.869Z,5.68
2023-03-04T05:00:45.686Z,4.72
2023-03-04T05:03:13.069Z,7.93
2023-03-04T05:05:40.483Z,7.70
2023-03-04T05:08:07.890Z,5.82
2023-03-04T05:10:35.352Z,6.53
2023-03-04T05:13:02.686Z,4.85
2023-03-04T05:15:30.154Z,8.13
2023-03-04T05:17:57.741Z,7.85
2023-03-04T05:20:25.817Z,8.43
2023-03-04T05:22:53.536Z,6.15
2023-03-04T05:25:20.947Z,5.72
2023-03-04T05:27:48.288Z,8.57
2023-03-04T05:30:22.324Z,6.18
2023-03-04T05:32:52.962Z,6.93
2023-03-04T05:35:20.396Z,8.32
2023-03-04T05:37:47.758Z,6.45
2023-03-04T05:40:15.291Z,5.97
2023-03-04T05:42:42.643Z,7.90
2023-03-04T05:45:10.344Z,5.38
2023-03-04T05:47:37.700Z,5.72
2023-03-04T05:50:05.469Z,5.25
2023-03-04T05:55:01.352Z,5.03
2023-03-04T05:57:30.370Z,6.82
2023-03-04T05:59:59.496Z,6.47
2023-03-04T06:02:26.997Z,4.90
2023-03-04T06:04:54.647Z,6.80
2023-03-04T06:07:22.141Z,6.82
2023-03-04T06:09:49.776Z,7.47
2023-03-04T06:12:17.110Z,6.53
2023-03-04T06:14:44.544Z,6.25
2023-03-04T06:17:12.246Z,6.22
2023-03-04T06:19:41.842Z,5.85
2023-03-04T06:22:10.233Z,7.15
2023-03-04T06:24:38.402Z,7.55
2023-03-04T06:27:06.165Z,6.13
2023-03-04T06:32:01.023Z,6.00
2023-03-04T06:34:29.970Z,7.47
2023-03-04T06:36:57.537Z,5.72
2023-03-04T06:39:24.985Z,5.57
2023-03-04T06:41:52.407Z,5.57
2023-03-04T06:44:19.859Z,6.57
2023-03-04T06:46:47.483Z,5.95
2023-03-04T06:49:15.101Z,4.85
2023-03-04T06:51:42.472Z,6.60
2023-03-04T06:54:10.098Z,5.78
2023-03-04T06:56:37.677Z,5.57
2023-03-04T06:59:05.290Z,6.45
2023-03-04T07:01:32.825Z,5.55
2023-03-04T07:04:00.392Z,5.45
2023-03-04T07:06:29.208Z,6.55
2023-03-04T07:08:58.359Z,6.95
2023-03-04T07:11:26.132Z,7.00
2023-03-04T07:13:53.867Z,6.05
2023-03-04T07:16:23.466Z,4.82
2023-03-04T07:18:51.179Z,5.15
2023-03-04T07:21:18.927Z,7.13
2023-03-04T07:23:47.673Z,5.10
2023-03-04T07:26:15.483Z,6.82
2023-03-04T07:28:43.524Z,4.75
2023-03-04T07:31:24.373Z,7.03
2023-03-04T07:33:51.908Z,6.32
2023-03-04T07:36:20.225Z,5.45
2023-03-04T07:38:49.177Z,5.45
2023-03-04T07:41:18.315Z,4.55
2023-03-04T07:43:45.708Z,5.20
2023-03-04T07:46:13.550Z,4.45
2023-03-04T07:48:41.276Z,4.85
2023-03-04T07:53:41.288Z,5.88
2023-03-04T07:56:12.564Z,4.55
2023-03-04T07:58:40.053Z,6.07
2023-03-04T08:01:23.825Z,5.55
2023-03-04T08:03:51.483Z,5.80
2023-03-04T08:06:20.999Z,5.15
2023-03-04T08:08:49.315Z,5.70
2023-03-04T08:11:22.109Z,4.55
2023-03-04T08:13:50.920Z,5.50
2023-03-04T08:16:19.724Z,5.45
2023-03-04T08:18:50.284Z,5.57
2023-03-04T08:21:20.021Z,6.00
2023-03-04T08:23:48.621Z,5.32
2023-03-04T08:26:20.482Z,4.47
2023-03-04T08:28:48.580Z,4.32
2023-03-04T08:31:18.422Z,4.97
2023-03-04T08:33:47.077Z,7.32
2023-03-04T08:36:16.136Z,5.45
2023-03-04T08:38:43.898Z,5.13
2023-03-04T08:41:11.759Z,6.85
2023-03-04T08:43:39.979Z,4.22
2023-03-04T08:46:07.991Z,6.28
2023-03-04T08:48:37.832Z,3.95
2023-03-04T08:51:15.231Z,6.20
2023-03-04T08:53:43.758Z,5.63
2023-03-04T08:56:11.769Z,4.40
2023-03-04T08:58:39.534Z,5.35
2023-03-04T09:01:13.083Z,4.60
2023-03-04T09:03:41.529Z,4.57
2023-03-04T09:06:10.466Z,7.03
2023-03-04T09:08:37.860Z,4.80
2023-03-04T09:11:05.700Z,5.85
2023-03-04T09:13:33.803Z,4.82
2023-03-04T09:16:01.483Z,4.80
2023-03-04T09:18:29.158Z,5.65
2023-03-04T09:20:56.551Z,4.88
2023-03-04T09:23:23.848Z,5.55
2023-03-04T09:25:51.323Z,4.50
2023-03-04T09:28:20.281Z,5.32
2023-03-04T09:30:49.396Z,6.05
2023-03-04T09:33:17.012Z,4.72
2023-03-04T09:35:44.885Z,4.68
2023-03-04T09:38:12.330Z,4.65
2023-03-04T09:40:43.447Z,5.18
2023-03-04T09:43:19.046Z,4.45
2023-03-04T09:45:55.068Z,4.63
2023-03-04T09:48:25.171Z,4.57
2023-03-04T09:51:26.422Z,4.80
2023-03-04T09:54:05.153Z,5.40
2023-03-04T09:56:37.110Z,3.97
2023-03-04T09:59:19.708Z,4.90
2023-03-04T10:01:52.327Z,4.30
2023-03-04T10:04:40.128Z,4.82
2023-03-04T10:07:22.654Z,4.10
2023-03-04T10:09:59.904Z,4.18
2023-03-04T10:12:31.852Z,5.35
2023-03-04T10:15:04.564Z,4.57
2023-03-04T10:17:43.062Z,4.07
2023-03-04T10:20:19.200Z,4.05
2023-03-04T10:22:58.521Z,5.22
2023-03-04T10:25:29.738Z,5.05
2023-03-04T10:28:13.052Z,3.88
2023-03-04T10:30:56.648Z,4.82
2023-03-04T10:33:30.605Z,3.33
2023-03-04T10:36:27.446Z,3.65
2023-03-04T10:38:59.498Z,3.53
2023-03-04T10:41:29.806Z,3.03
2023-03-04T10:44:05.322Z,4.45
2023-03-04T10:46:33.285Z,3.55
2023-03-04T10:51:29.933Z,5.22
2023-03-04T10:54:23.687Z,4.40
2023-03-04T10:56:58.372Z,3.05
2023-03-04T10:59:40.294Z,2.53
2023-03-04T11:02:23.525Z,4.18
2023-03-04T11:05:05.057Z,2.85
2023-03-04T11:07:52.266Z,3.20
2023-03-04T11:10:40.563Z,3.13
2023-03-04T11:13:21.389Z,4.55
2023-03-04T11:15:48.870Z,3.92
2023-03-04T11:18:21.219Z,3.70
2023-03-04T11:20:50.186Z,4.63
2023-03-04T11:23:23.865Z,2.70
2023-03-04T11:25:59.037Z,3.05
2023-03-04T11:28:31.826Z,3.80
2023-03-04T11:31:03.423Z,3.03
2023-03-04T11:33:44.378Z,3.95
2023-03-04T11:36:28.542Z,4.03
2023-03-04T11:38:57.237Z,3.10
2023-03-04T11:41:38.466Z,3.67
2023-03-04T11:44:08.950Z,3.70
2023-03-04T11:47:04.519Z,2.92
2023-03-04T11:50:23.645Z,2.92
2023-03-04T11:53:12.784Z,3.72
2023-03-04T11:55:58.908Z,2.60
2023-03-04T11:58:52.188Z,3.67
2023-03-04T12:01:42.355Z,2.38
2023-03-04T12:04:45.276Z,2.90
2023-03-04T12:07:36.071Z,2.30
2023-03-04T12:10:44.716Z,2.97
2023-03-04T12:13:38.304Z,3.05
2023-03-04T12:16:21.456Z,2.53
2023-03-04T12:19:13.343Z,2.70
2023-03-04T12:22:14.131Z,2.75
2023-03-04T12:25:03.186Z,2.83
2023-03-04T12:27:58.030Z,1.95
2023-03-04T12:30:40.555Z,2.38
2023-03-04T12:33:21.356Z,2.47
2023-03-04T12:36:17.097Z,1.67
2023-03-04T12:39:00.924Z,2.60
2023-03-04T12:41:59.623Z,3.70
2023-03-04T12:44:43.763Z,2.20
2023-03-04T12:47:24.613Z,2.33
2023-03-04T12:50:04.572Z,2.83
2023-03-04T12:52:35.303Z,2.03
2023-03-04T12:55:04.759Z,2.90
2023-03-04T12:57:33.445Z,2.15
2023-03-04T13:00:35.146Z,2.15
2023-03-04T13:03:18.139Z,1.85
2023-03-04T13:06:27.688Z,1.75
2023-03-04T13:09:11.918Z,2.53
2023-03-04T13:11:54.948Z,1.88
2023-03-04T13:14:26.059Z,1.75
2023-03-04T13:16:55.112Z,2.05
2023-03-04T13:19:41.334Z,2.17
2023-03-04T13:22:28.693Z,2.60
2023-03-04T13:24:58.241Z,2.03
2023-03-04T13:28:04.894Z,1.90
2023-03-04T13:30:32.350Z,1.48
2023-03-04T13:33:09.053Z,2.22
2023-03-04T13:35:54.964Z,2.07
2023-03-04T13:38:24.590Z,2.00
2023-03-04T13:41:21.123Z,2.65
2023-03-04T13:43:54.513Z,2.33
2023-03-04T13:46:24.848Z,1.52
2023-03-04T13:48:52.627Z,1.70
2023-03-04T13:51:30.339Z,0.93
2023-03-04T13:54:02.944Z,1.30
2023-03-04T13:56:37.829Z,1.27
2023-03-04T13:59:08.676Z,1.15
2023-03-04T14:01:39.678Z,0.80
2023-03-04T14:04:22.108Z,0.85
2023-03-04T14:06:51.327Z,0.77
2023-03-04T14:09:26.377Z,1.23
2023-03-04T14:11:57.430Z,2.13
2023-03-04T14:14:28.850Z,1.20
2023-03-04T14:17:03.422Z,1.50
2023-03-04T14:19:43.221Z,1.45
2023-03-04T14:22:30.572Z,1.10
2023-03-04T14:27:33.252Z,1.15
2023-03-04T14:30:03.910Z,1.77
2023-03-04T14:32:31.945Z,1.58
2023-03-04T14:35:19.777Z,0.70
2023-03-04T14:38:07.038Z,1.73
2023-03-04T14:40:45.316Z,1.30
2023-03-04T14:43:21.326Z,0.70
2023-03-04T14:45:52.614Z,1.10
2023-03-04T14:48:33.683Z,0.90
2023-03-04T14:51:03.909Z,0.95
2023-03-04T14:53:33.538Z,1.58
2023-03-04T14:56:07.174Z,0.90
2023-03-04T14:58:52.029Z,1.30
2023-03-04T15:01:28.992Z,1.35
2023-03-04T15:04:08.102Z,1.05
2023-03-04T15:06:39.988Z,1.23
2023-03-04T15:09:19.197Z,0.47
2023-03-04T15:11:53.090Z,0.77
2023-03-04T15:14:54.136Z,0.70
2023-03-04T15:17:39.785Z,0.70
2023-03-04T15:20:07.365Z,1.33
2023-03-04T15:22:54.722Z,0.82
2023-03-04T15:25:23.140Z,0.45
2023-03-04T15:27:51.472Z,0.68
2023-03-04T15:30:21.550Z,1.27
2023-03-04T15:32:49.964Z,1.17
2023-03-04T15:35:19.210Z,0.90
2023-03-04T15:37:49.584Z,1.80
2023-03-04T15:40:22.009Z,1.42
2023-03-04T15:42:49.793Z,1.08
2023-03-04T15:45:38.064Z,0.57
2023-03-04T15:48:09.382Z,1.20
2023-03-04T15:50:47.687Z,1.00
2023-03-04T15:53:22.778Z,1.10
2023-03-04T15:55:50.176Z,0.98
2023-03-04T15:58:18.076Z,0.85
2023-03-04T16:03:17.807Z,1.35
2023-03-04T16:05:48.125Z,0.68
2023-03-04T16:08:18.625Z,0.85
2023-03-04T16:10:47.519Z,0.65
2023-03-04T16:13:17.850Z,1.58
2023-03-04T16:15:45.983Z,0.98
2023-03-04T16:18:14.699Z,0.70
2023-03-04T16:20:46.151Z,0.60
2023-03-04T16:23:17.635Z,1.30
2023-03-04T16:25:47.375Z,1.30
2023-03-04T16:28:15.026Z,2.15
2023-03-04T16:30:42.730Z,0.93
2023-03-04T16:33:11.541Z,0.95
2023-03-04T16:35:44.376Z,1.25
2023-03-04T16:38:23.210Z,0.80
2023-03-04T16:40:51.588Z,0.85
2023-03-04T16:43:19.390Z,0.98
2023-03-04T16:48:16.369Z,0.88
2023-03-04T16:50:44.964Z,0.82
2023-03-04T16:53:38.885Z,0.70
2023-03-04T16:56:11.957Z,0.50
2023-03-04T16:58:39.366Z,1.10
2023-03-04T17:01:07.234Z,1.10
2023-03-04T17:06:02.215Z,0.90
2023-03-04T17:08:38.142Z,1.65
2023-03-04T17:11:06.077Z,0.77
2023-03-04T17:16:03.100Z,1.30
2023-03-04T17:18:30.861Z,0.98
2023-03-04T17:21:07.053Z,1.60
2023-03-04T17:23:37.823Z,1.30
2023-03-04T17:26:06.386Z,1.65
2023-03-04T17:28:33.903Z,1.08
2023-03-04T17:31:02.008Z,1.67
2023-03-04T17:33:29.421Z,2.70
2023-03-04T17:35:58.436Z,1.40
2023-03-04T17:38:25.892Z,1.65
2023-03-04T17:40:53.347Z,2.03
2023-03-04T17:43:20.819Z,1.20
2023-03-04T17:45:48.766Z,1.50
2023-03-04T17:48:16.374Z,1.00
2023-03-04T17:50:53.381Z,1.45
2023-03-04T17:53:24.309Z,2.00
2023-03-04T17:56:00.716Z,1.23
2023-03-04T17:58:30.886Z,1.15
2023-03-04T18:01:02.841Z,1.65
2023-03-04T18:03:33.118Z,1.73
2023-03-04T18:06:00.678Z,1.38
2023-03-04T18:08:28.115Z,1.33
2023-03-04T18:10:55.668Z,1.35
2023-03-04T18:13:23.163Z,1.02
2023-03-04T18:15:55.696Z,1.80
2023-03-04T18:18:23.354Z,1.10
2023-03-04T18:20:57.480Z,1.23
2023-03-04T18:23:25.447Z,0.82
2023-03-04T18:25:53.435Z,0.98
2023-03-04T18:28:21.164Z,1.05
2023-03-04T18:30:51.524Z,1.23
2023-03-04T18:33:19.847Z,0.93
2023-03-04T18:35:47.377Z,1.00
2023-03-04T18:38:14.848Z,1.42
2023-03-04T18:40:45.241Z,1.17
2023-03-04T18:43:13.215Z,1.20
2023-03-04T18:45:40.609Z,1.70
2023-03-04T18:48:08.362Z,0.70
2023-03-04T18:50:35.794Z,1.20
2023-03-04T18:53:03.430Z,0.95
2023-03-04T18:55:31.976Z,1.13
2023-03-04T18:58:01.509Z,1.00
2023-03-04T19:00:29.577Z,1.17
2023-03-04T19:03:06.719Z,1.40
2023-03-04T19:05:34.677Z,1.52
2023-03-04T19:08:02.374Z,1.65
2023-03-04T19:10:30.239Z,0.88
2023-03-04T19:12:59.647Z,1.20
2023-03-04T19:15:27.392Z,2.08
2023-03-04T19:17:54.905Z,2.10
2023-03-04T19:20:22.534Z,1.17
2023-03-04T19:22:50.998Z,1.58
2023-03-04T19:25:18.455Z,2.30
2023-03-04T19:27:45.958Z,1.67
2023-03-04T19:30:14.252Z,1.17
2023-03-04T19:32:41.701Z,1.63
2023-03-04T19:35:41.228Z,1.25
2023-03-04T19:38:10.825Z,2.13
2023-03-04T19:40:40.590Z,1.05
2023-03-04T19:43:08.738Z,1.23
2023-03-04T19:45:36.408Z,1.02
2023-03-04T19:48:04.156Z,1.83
2023-03-04T19:50:32.708Z,1.58
2023-03-04T19:53:00.305Z,2.65
2023-03-04T19:55:29.004Z,1.52
2023-03-04T19:57:56.667Z,2.13
2023-03-04T20:00:24.420Z,2.28
2023-03-04T20:07:47.223Z,1.73
2023-03-04T20:10:16.084Z,1.58
2023-03-04T20:12:43.714Z,2.05
2023-03-04T20:15:11.725Z,1.63
2023-03-04T20:17:39.679Z,1.38
2023-03-04T20:20:10.728Z,1.35
2023-03-04T20:22:38.704Z,1.17
2023-03-04T20:25:07.174Z,1.10
2023-03-04T20:27:34.796Z,1.23
2023-03-04T20:30:03.950Z,2.15
2023-03-04T20:32:32.239Z,1.60
2023-03-04T20:34:59.900Z,2.15
2023-03-04T20:37:27.434Z,1.75
2023-03-04T20:39:57.178Z,2.20
2023-03-04T20:42:25.070Z,1.50
2023-03-04T20:47:20.940Z,2.42
2023-03-04T20:49:49.523Z,1.67
2023-03-04T20:52:18.911Z,3.00
2023-03-04T20:54:46.601Z,2.13
2023-03-04T20:57:14.509Z,1.15
2023-03-04T21:02:13.672Z,2.42
2023-03-04T21:04:41.262Z,3.50
2023-03-04T21:09:36.431Z,1.98
2023-03-04T21:12:04.070Z,2.28
2023-03-04T21:14:32.607Z,2.58
2023-03-04T21:17:02.623Z,1.92
2023-03-04T21:19:37.123Z,2.53
2023-03-04T21:22:05.165Z,1.25
2023-03-04T21:24:36.207Z,1.52
2023-03-04T21:27:05.003Z,1.83
2023-03-04T21:29:33.071Z,1.55
2023-03-04T21:32:23.758Z,3.22
2023-03-04T21:34:53.388Z,2.10
2023-03-04T21:37:24.580Z,1.75
2023-03-04T21:39:52.197Z,1.67
2023-03-04T21:42:19.646Z,2.17
2023-03-04T21:44:50.021Z,1.35
2023-03-04T21:47:19.484Z,1.42
2023-03-04T21:49:47.105Z,2.28
2023-03-04T21:52:14.680Z,1.65
2023-03-04T21:54:42.338Z,1.40
2023-03-04T21:57:10.337Z,1.40
2023-03-04T21:59:39.185Z,3.47
2023-03-04T22:02:25.232Z,1.65
2023-03-04T22:04:53.897Z,2.38
2023-03-04T22:07:21.592Z,1.85
2023-03-04T22:09:49.040Z,2.97
2023-03-04T22:12:18.418Z,1.63
2023-03-04T22:14:46.932Z,1.77
2023-03-04T22:17:14.401Z,1.70
2023-03-04T22:19:42.062Z,1.52
2023-03-04T22:22:09.502Z,1.92
2023-03-04T22:24:40.101Z,1.75
2023-03-04T22:27:07.543Z,1.77
2023-03-04T22:29:35.009Z,1.15
2023-03-04T22:32:02.596Z,1.10
2023-03-04T22:36:58.207Z,0.85
2023-03-04T22:39:25.589Z,1.55
2023-03-04T22:41:52.959Z,1.38
2023-03-04T22:44:20.454Z,1.58
2023-03-04T22:46:47.951Z,2.45
2023-03-04T22:49:15.342Z,1.58
2023-03-04T22:51:44.322Z,1.60
2023-03-04T22:54:17.452Z,1.50
2023-03-04T22:56:45.431Z,1.35
2023-03-04T22:59:13.602Z,2.17
2023-03-04T23:01:41.462Z,1.15
2023-03-04T23:06:37.665Z,1.58
2023-03-04T23:09:06.256Z,1.58
2023-03-04T23:11:39.874Z,1.88
2023-03-04T23:14:08.974Z,1.48
2023-03-04T23:16:41.089Z,1.95
2023-03-04T23:19:11.033Z,1.17
2023-03-04T23:21:38.777Z,0.63
2023-03-04T23:24:08.250Z,0.85
2023-03-04T23:26:38.956Z,0.93
2023-03-04T23:29:09.343Z,1.13
2023-03-04T23:31:37.013Z,1.30
2023-03-04T23:34:04.770Z,1.55
2023-03-04T23:36:34.693Z,1.13
2023-03-04T23:39:03.574Z,0.98
2023-03-04T23:41:32.114Z,1.42
2023-03-04T23:44:00.621Z,2.22
2023-03-04T23:46:28.427Z,1.33
2023-03-04T23:51:25.482Z,1.48
2023-03-04T23:53:52.994Z,1.17
2023-03-04T23:56:27.070Z,1.05
2023-03-04T23:58:55.607Z,1.33
